sensor_id;sensor_type;location;lat;lon;timestamp;pressure;altitude;pressure_sealevel;temperature
15626;BMP180;7912;51.376;6.126;2022-11-22T00:00:45;98847.00;;;10.90
15626;BMP180;7912;51.376;6.126;2022-11-22T00:03:12;98854.00;;;10.90
15626;BMP180;7912;51.376;6.126;2022-11-22T00:05:39;98851.00;;;11.00
15626;BMP180;7912;51.376;6.126;2022-11-22T00:08:07;98846.00;;;11.00
15626;BMP180;7912;51.376;6.126;2022-11-22T00:10:34;98852.00;;;10.90
15626;BMP180;7912;51.376;6.126;2022-11-22T00:13:02;98849.00;;;11.00
15626;BMP180;7912;51.376;6.126;2022-11-22T00:15:30;98848.00;;;11.00
15626;BMP180;7912;51.376;6.126;2022-11-22T00:17:58;98854.00;;;11.00
15626;BMP180;7912;51.376;6.126;2022-11-22T00:20:25;98852.00;;;11.00
15626;BMP180;7912;51.376;6.126;2022-11-22T00:22:52;98853.00;;;11.00
15626;BMP180;7912;51.376;6.126;2022-11-22T00:25:20;98852.00;;;11.10
15626;BMP180;7912;51.376;6.126;2022-11-22T00:27:47;98856.00;;;11.10
15626;BMP180;7912;51.376;6.126;2022-11-22T00:30:14;98844.00;;;11.10
15626;BMP180;7912;51.376;6.126;2022-11-22T00:32:42;98852.00;;;11.20
15626;BMP180;7912;51.376;6.126;2022-11-22T00:35:11;98851.00;;;11.20
15626;BMP180;7912;51.376;6.126;2022-11-22T00:37:38;98853.00;;;11.20
15626;BMP180;7912;51.376;6.126;2022-11-22T00:40:06;98851.00;;;11.30
15626;BMP180;7912;51.376;6.126;2022-11-22T00:42:34;98845.00;;;11.30
15626;BMP180;7912;51.376;6.126;2022-11-22T00:45:01;98836.00;;;11.30
15626;BMP180;7912;51.376;6.126;2022-11-22T00:47:28;98845.00;;;11.40
15626;BMP180;7912;51.376;6.126;2022-11-22T00:49:56;98846.00;;;11.40
15626;BMP180;7912;51.376;6.126;2022-11-22T00:52:23;98847.00;;;11.40
15626;BMP180;7912;51.376;6.126;2022-11-22T00:54:50;98834.00;;;11.40
15626;BMP180;7912;51.376;6.126;2022-11-22T00:57:21;98852.00;;;11.50
15626;BMP180;7912;51.376;6.126;2022-11-22T00:59:49;98845.00;;;11.50
15626;BMP180;7912;51.376;6.126;2022-11-22T01:02:16;98843.00;;;11.50
15626;BMP180;7912;51.376;6.126;2022-11-22T01:04:43;98838.00;;;11.50
15626;BMP180;7912;51.376;6.126;2022-11-22T01:07:11;98848.00;;;11.40
15626;BMP180;7912;51.376;6.126;2022-11-22T01:09:41;98862.00;;;11.40
15626;BMP180;7912;51.376;6.126;2022-11-22T01:12:08;98852.00;;;11.40
15626;BMP180;7912;51.376;6.126;2022-11-22T01:14:35;98851.00;;;11.40
15626;BMP180;7912;51.376;6.126;2022-11-22T01:17:03;98847.00;;;11.30
15626;BMP180;7912;51.376;6.126;2022-11-22T01:19:30;98857.00;;;11.30
15626;BMP180;7912;51.376;6.126;2022-11-22T01:21:58;98848.00;;;11.30
15626;BMP180;7912;51.376;6.126;2022-11-22T01:24:25;98858.00;;;11.30
15626;BMP180;7912;51.376;6.126;2022-11-22T01:26:52;98859.00;;;11.30
15626;BMP180;7912;51.376;6.126;2022-11-22T01:29:20;98865.00;;;11.20
15626;BMP180;7912;51.376;6.126;2022-11-22T01:31:47;98870.00;;;11.20
15626;BMP180;7912;51.376;6.126;2022-11-22T01:34:14;98871.00;;;11.10
15626;BMP180;7912;51.376;6.126;2022-11-22T01:36:42;98872.00;;;11.10
15626;BMP180;7912;51.376;6.126;2022-11-22T01:39:09;98878.00;;;11.10
15626;BMP180;7912;51.376;6.126;2022-11-22T01:41:37;98867.00;;;11.10
15626;BMP180;7912;51.376;6.126;2022-11-22T01:44:41;98866.00;;;11.00
15626;BMP180;7912;51.376;6.126;2022-11-22T01:47:22;98846.00;;;11.00
15626;BMP180;7912;51.376;6.126;2022-11-22T01:50:14;98857.00;;;10.90
15626;BMP180;7912;51.376;6.126;2022-11-22T01:52:43;98846.00;;;10.90
15626;BMP180;7912;51.376;6.126;2022-11-22T01:55:12;98869.00;;;10.80
15626;BMP180;7912;51.376;6.126;2022-11-22T01:57:46;98874.00;;;10.80
15626;BMP180;7912;51.376;6.126;2022-11-22T02:00:17;98866.00;;;10.80
15626;BMP180;7912;51.376;6.126;2022-11-22T02:02:55;98883.00;;;10.80
15626;BMP180;7912;51.376;6.126;2022-11-22T02:05:30;98891.00;;;10.80
15626;BMP180;7912;51.376;6.126;2022-11-22T02:08:18;98890.00;;;10.70
15626;BMP180;7912;51.376;6.126;2022-11-22T02:10:49;98889.00;;;10.70
15626;BMP180;7912;51.376;6.126;2022-11-22T02:13:21;98909.00;;;10.60
15626;BMP180;7912;51.376;6.126;2022-11-22T02:15:51;98913.00;;;10.60
15626;BMP180;7912;51.376;6.126;2022-11-22T02:18:19;98908.00;;;10.60
15626;BMP180;7912;51.376;6.126;2022-11-22T02:20:46;98901.00;;;10.60
15626;BMP180;7912;51.376;6.126;2022-11-22T02:23:49;98899.00;;;10.60
15626;BMP180;7912;51.376;6.126;2022-11-22T02:26:26;98904.00;;;10.60
15626;BMP180;7912;51.376;6.126;2022-11-22T02:29:00;98904.00;;;10.60
15626;BMP180;7912;51.376;6.126;2022-11-22T02:31:41;98894.00;;;10.50
15626;BMP180;7912;51.376;6.126;2022-11-22T02:34:10;98903.00;;;10.50
15626;BMP180;7912;51.376;6.126;2022-11-22T02:36:52;98902.00;;;10.50
15626;BMP180;7912;51.376;6.126;2022-11-22T02:39:28;98895.00;;;10.50
15626;BMP180;7912;51.376;6.126;2022-11-22T02:41:57;98889.00;;;10.50
15626;BMP180;7912;51.376;6.126;2022-11-22T02:44:25;98904.00;;;10.50
15626;BMP180;7912;51.376;6.126;2022-11-22T02:46:54;98894.00;;;10.50
15626;BMP180;7912;51.376;6.126;2022-11-22T02:49:24;98900.00;;;10.50
15626;BMP180;7912;51.376;6.126;2022-11-22T02:51:52;98906.00;;;10.50
15626;BMP180;7912;51.376;6.126;2022-11-22T02:54:21;98905.00;;;10.50
15626;BMP180;7912;51.376;6.126;2022-11-22T02:56:49;98910.00;;;10.50
15626;BMP180;7912;51.376;6.126;2022-11-22T02:59:16;98915.00;;;10.50
15626;BMP180;7912;51.376;6.126;2022-11-22T03:01:45;98899.00;;;10.50
15626;BMP180;7912;51.376;6.126;2022-11-22T03:04:14;98917.00;;;10.50
15626;BMP180;7912;51.376;6.126;2022-11-22T03:06:53;98926.00;;;10.50
15626;BMP180;7912;51.376;6.126;2022-11-22T03:09:25;98929.00;;;10.50
15626;BMP180;7912;51.376;6.126;2022-11-22T03:11:54;98927.00;;;10.50
15626;BMP180;7912;51.376;6.126;2022-11-22T03:14:21;98927.00;;;10.50
15626;BMP180;7912;51.376;6.126;2022-11-22T03:16:49;98922.00;;;10.40
15626;BMP180;7912;51.376;6.126;2022-11-22T03:19:17;98934.00;;;10.40
15626;BMP180;7912;51.376;6.126;2022-11-22T03:21:45;98931.00;;;10.40
15626;BMP180;7912;51.376;6.126;2022-11-22T03:24:12;98940.00;;;10.40
15626;BMP180;7912;51.376;6.126;2022-11-22T03:26:48;98941.00;;;10.30
15626;BMP180;7912;51.376;6.126;2022-11-22T03:29:16;98941.00;;;10.40
15626;BMP180;7912;51.376;6.126;2022-11-22T03:31:46;98957.00;;;10.40
15626;BMP180;7912;51.376;6.126;2022-11-22T03:34:18;98956.00;;;10.30
15626;BMP180;7912;51.376;6.126;2022-11-22T03:36:45;98956.00;;;10.30
15626;BMP180;7912;51.376;6.126;2022-11-22T03:39:12;98949.00;;;10.30
15626;BMP180;7912;51.376;6.126;2022-11-22T03:41:40;98961.00;;;10.30
15626;BMP180;7912;51.376;6.126;2022-11-22T03:44:07;98954.00;;;10.30
15626;BMP180;7912;51.376;6.126;2022-11-22T03:46:37;98949.00;;;10.20
15626;BMP180;7912;51.376;6.126;2022-11-22T03:49:05;98949.00;;;10.20
15626;BMP180;7912;51.376;6.126;2022-11-22T03:51:32;98960.00;;;10.20
15626;BMP180;7912;51.376;6.126;2022-11-22T03:53:59;98954.00;;;10.20
15626;BMP180;7912;51.376;6.126;2022-11-22T03:56:27;98964.00;;;10.10
15626;BMP180;7912;51.376;6.126;2022-11-22T03:58:56;98949.00;;;10.10
15626;BMP180;7912;51.376;6.126;2022-11-22T04:01:23;98961.00;;;10.10
15626;BMP180;7912;51.376;6.126;2022-11-22T04:03:52;98957.00;;;10.10
15626;BMP180;7912;51.376;6.126;2022-11-22T04:06:20;98946.00;;;10.10
15626;BMP180;7912;51.376;6.126;2022-11-22T04:08:47;98964.00;;;10.00
15626;BMP180;7912;51.376;6.126;2022-11-22T04:11:17;98965.00;;;10.00
15626;BMP180;7912;51.376;6.126;2022-11-22T04:13:45;98970.00;;;10.00
15626;BMP180;7912;51.376;6.126;2022-11-22T04:16:31;98966.00;;;10.00
15626;BMP180;7912;51.376;6.126;2022-11-22T04:18:58;98980.00;;;9.90
15626;BMP180;7912;51.376;6.126;2022-11-22T04:21:25;98984.00;;;9.90
15626;BMP180;7912;51.376;6.126;2022-11-22T04:24:12;98999.00;;;9.90
15626;BMP180;7912;51.376;6.126;2022-11-22T04:26:58;98993.00;;;9.80
15626;BMP180;7912;51.376;6.126;2022-11-22T04:29:28;99005.00;;;9.80
15626;BMP180;7912;51.376;6.126;2022-11-22T04:31:56;99010.00;;;9.80
15626;BMP180;7912;51.376;6.126;2022-11-22T04:34:45;99004.00;;;9.80
15626;BMP180;7912;51.376;6.126;2022-11-22T04:37:18;99017.00;;;9.80
15626;BMP180;7912;51.376;6.126;2022-11-22T04:39:47;99000.00;;;9.80
15626;BMP180;7912;51.376;6.126;2022-11-22T04:42:15;99016.00;;;9.70
15626;BMP180;7912;51.376;6.126;2022-11-22T04:45:00;99013.00;;;9.70
15626;BMP180;7912;51.376;6.126;2022-11-22T04:47:28;99014.00;;;9.70
15626;BMP180;7912;51.376;6.126;2022-11-22T04:50:16;99009.00;;;9.60
15626;BMP180;7912;51.376;6.126;2022-11-22T04:53:02;99013.00;;;9.60
15626;BMP180;7912;51.376;6.126;2022-11-22T04:55:29;99006.00;;;9.60
15626;BMP180;7912;51.376;6.126;2022-11-22T04:57:57;99014.00;;;9.60
15626;BMP180;7912;51.376;6.126;2022-11-22T05:04:39;99014.00;;;9.40
15626;BMP180;7912;51.376;6.126;2022-11-22T05:07:09;98998.00;;;9.40
15626;BMP180;7912;51.376;6.126;2022-11-22T05:09:37;99001.00;;;9.40
15626;BMP180;7912;51.376;6.126;2022-11-22T05:12:05;99014.00;;;9.40
15626;BMP180;7912;51.376;6.126;2022-11-22T05:14:32;99010.00;;;9.30
15626;BMP180;7912;51.376;6.126;2022-11-22T05:16:59;99009.00;;;9.30
15626;BMP180;7912;51.376;6.126;2022-11-22T05:19:26;99008.00;;;9.30
15626;BMP180;7912;51.376;6.126;2022-11-22T05:21:54;99009.00;;;9.30
15626;BMP180;7912;51.376;6.126;2022-11-22T05:24:27;99006.00;;;9.20
15626;BMP180;7912;51.376;6.126;2022-11-22T05:26:54;99017.00;;;9.20
15626;BMP180;7912;51.376;6.126;2022-11-22T05:29:22;99015.00;;;9.20
15626;BMP180;7912;51.376;6.126;2022-11-22T05:31:49;99012.00;;;9.20
15626;BMP180;7912;51.376;6.126;2022-11-22T05:34:17;99006.00;;;9.20
15626;BMP180;7912;51.376;6.126;2022-11-22T05:36:44;99015.00;;;9.10
15626;BMP180;7912;51.376;6.126;2022-11-22T05:39:14;99010.00;;;9.10
15626;BMP180;7912;51.376;6.126;2022-11-22T05:41:44;99023.00;;;9.10
15626;BMP180;7912;51.376;6.126;2022-11-22T05:44:22;99021.00;;;9.10
15626;BMP180;7912;51.376;6.126;2022-11-22T05:46:50;99018.00;;;9.10
15626;BMP180;7912;51.376;6.126;2022-11-22T05:49:17;99025.00;;;9.00
15626;BMP180;7912;51.376;6.126;2022-11-22T05:51:46;99024.00;;;9.00
15626;BMP180;7912;51.376;6.126;2022-11-22T05:54:13;99014.00;;;9.00
15626;BMP180;7912;51.376;6.126;2022-11-22T05:56:40;99024.00;;;9.00
15626;BMP180;7912;51.376;6.126;2022-11-22T05:59:08;99026.00;;;9.00
15626;BMP180;7912;51.376;6.126;2022-11-22T06:01:35;99021.00;;;9.00
15626;BMP180;7912;51.376;6.126;2022-11-22T06:04:04;99017.00;;;8.90
15626;BMP180;7912;51.376;6.126;2022-11-22T06:06:33;99028.00;;;8.90
15626;BMP180;7912;51.376;6.126;2022-11-22T06:09:00;99027.00;;;8.90
15626;BMP180;7912;51.376;6.126;2022-11-22T06:11:28;99023.00;;;8.90
15626;BMP180;7912;51.376;6.126;2022-11-22T06:14:00;99033.00;;;8.80
15626;BMP180;7912;51.376;6.126;2022-11-22T06:16:31;99027.00;;;8.80
15626;BMP180;7912;51.376;6.126;2022-11-22T06:18:58;99039.00;;;8.80
15626;BMP180;7912;51.376;6.126;2022-11-22T06:21:25;99019.00;;;8.80
15626;BMP180;7912;51.376;6.126;2022-11-22T06:23:55;99021.00;;;8.70
15626;BMP180;7912;51.376;6.126;2022-11-22T06:26:23;99035.00;;;8.80
15626;BMP180;7912;51.376;6.126;2022-11-22T06:28:54;99041.00;;;8.70
15626;BMP180;7912;51.376;6.126;2022-11-22T06:31:24;99038.00;;;8.70
15626;BMP180;7912;51.376;6.126;2022-11-22T06:33:54;99036.00;;;8.70
15626;BMP180;7912;51.376;6.126;2022-11-22T06:36:40;99036.00;;;8.70
15626;BMP180;7912;51.376;6.126;2022-11-22T06:39:10;99041.00;;;8.70
15626;BMP180;7912;51.376;6.126;2022-11-22T06:41:38;99039.00;;;8.70
15626;BMP180;7912;51.376;6.126;2022-11-22T06:44:08;99049.00;;;8.60
15626;BMP180;7912;51.376;6.126;2022-11-22T06:46:36;99035.00;;;8.60
15626;BMP180;7912;51.376;6.126;2022-11-22T06:49:04;99034.00;;;8.60
15626;BMP180;7912;51.376;6.126;2022-11-22T06:51:31;99043.00;;;8.60
15626;BMP180;7912;51.376;6.126;2022-11-22T06:53:59;99048.00;;;8.60
15626;BMP180;7912;51.376;6.126;2022-11-22T06:56:35;99049.00;;;8.60
15626;BMP180;7912;51.376;6.126;2022-11-22T06:59:06;99073.00;;;8.60
15626;BMP180;7912;51.376;6.126;2022-11-22T07:01:43;99050.00;;;8.60
15626;BMP180;7912;51.376;6.126;2022-11-22T07:04:12;99050.00;;;8.60
15626;BMP180;7912;51.376;6.126;2022-11-22T07:06:39;99053.00;;;8.60
15626;BMP180;7912;51.376;6.126;2022-11-22T07:09:09;99057.00;;;8.60
15626;BMP180;7912;51.376;6.126;2022-11-22T07:11:38;99042.00;;;8.60
15626;BMP180;7912;51.376;6.126;2022-11-22T07:14:09;99063.00;;;8.60
15626;BMP180;7912;51.376;6.126;2022-11-22T07:16:40;99054.00;;;8.60
15626;BMP180;7912;51.376;6.126;2022-11-22T07:19:14;99069.00;;;8.50
15626;BMP180;7912;51.376;6.126;2022-11-22T07:21:41;99072.00;;;8.50
15626;BMP180;7912;51.376;6.126;2022-11-22T07:24:08;99074.00;;;8.50
15626;BMP180;7912;51.376;6.126;2022-11-22T07:26:36;99087.00;;;8.50
15626;BMP180;7912;51.376;6.126;2022-11-22T07:29:03;99080.00;;;8.50
15626;BMP180;7912;51.376;6.126;2022-11-22T07:31:31;99090.00;;;8.50
15626;BMP180;7912;51.376;6.126;2022-11-22T07:33:59;99078.00;;;8.50
15626;BMP180;7912;51.376;6.126;2022-11-22T07:36:29;99089.00;;;8.60
15626;BMP180;7912;51.376;6.126;2022-11-22T07:39:01;99089.00;;;8.50
15626;BMP180;7912;51.376;6.126;2022-11-22T07:41:28;99088.00;;;8.60
15626;BMP180;7912;51.376;6.126;2022-11-22T07:51:53;99102.00;;;8.50
15626;BMP180;7912;51.376;6.126;2022-11-22T07:54:21;99104.00;;;8.60
15626;BMP180;7912;51.376;6.126;2022-11-22T07:56:51;99102.00;;;8.70
15626;BMP180;7912;51.376;6.126;2022-11-22T07:59:19;99115.00;;;8.80
15626;BMP180;7912;51.376;6.126;2022-11-22T08:01:47;99110.00;;;8.90
15626;BMP180;7912;51.376;6.126;2022-11-22T08:04:19;99102.00;;;9.00
15626;BMP180;7912;51.376;6.126;2022-11-22T08:06:49;99094.00;;;9.10
15626;BMP180;7912;51.376;6.126;2022-11-22T08:09:17;99102.00;;;9.30
15626;BMP180;7912;51.376;6.126;2022-11-22T08:11:44;99104.00;;;9.40
15626;BMP180;7912;51.376;6.126;2022-11-22T08:14:12;99098.00;;;9.50
15626;BMP180;7912;51.376;6.126;2022-11-22T08:16:40;99098.00;;;9.60
15626;BMP180;7912;51.376;6.126;2022-11-22T08:19:10;99103.00;;;9.70
15626;BMP180;7912;51.376;6.126;2022-11-22T08:21:43;99092.00;;;9.70
15626;BMP180;7912;51.376;6.126;2022-11-22T08:24:15;99099.00;;;9.80
15626;BMP180;7912;51.376;6.126;2022-11-22T08:26:48;99095.00;;;9.90
15626;BMP180;7912;51.376;6.126;2022-11-22T08:29:16;99086.00;;;10.00
15626;BMP180;7912;51.376;6.126;2022-11-22T08:31:46;99088.00;;;10.00
15626;BMP180;7912;51.376;6.126;2022-11-22T08:34:14;99101.00;;;10.10
15626;BMP180;7912;51.376;6.126;2022-11-22T08:36:42;99094.00;;;10.10
15626;BMP180;7912;51.376;6.126;2022-11-22T08:39:10;99103.00;;;10.20
15626;BMP180;7912;51.376;6.126;2022-11-22T08:41:40;99087.00;;;10.20
15626;BMP180;7912;51.376;6.126;2022-11-22T08:44:08;99102.00;;;10.20
15626;BMP180;7912;51.376;6.126;2022-11-22T08:46:39;99099.00;;;10.20
15626;BMP180;7912;51.376;6.126;2022-11-22T08:49:06;99097.00;;;10.30
15626;BMP180;7912;51.376;6.126;2022-11-22T08:51:34;99092.00;;;10.40
15626;BMP180;7912;51.376;6.126;2022-11-22T08:54:05;99113.00;;;10.40
15626;BMP180;7912;51.376;6.126;2022-11-22T08:56:33;99101.00;;;10.50
15626;BMP180;7912;51.376;6.126;2022-11-22T08:59:00;99105.00;;;10.60
15626;BMP180;7912;51.376;6.126;2022-11-22T09:01:36;99105.00;;;10.60
15626;BMP180;7912;51.376;6.126;2022-11-22T09:04:11;99112.00;;;10.70
15626;BMP180;7912;51.376;6.126;2022-11-22T09:06:42;99115.00;;;10.70
15626;BMP180;7912;51.376;6.126;2022-11-22T09:09:31;99112.00;;;10.80
15626;BMP180;7912;51.376;6.126;2022-11-22T09:12:09;99113.00;;;10.80
15626;BMP180;7912;51.376;6.126;2022-11-22T09:14:37;99120.00;;;10.90
15626;BMP180;7912;51.376;6.126;2022-11-22T09:17:05;99121.00;;;11.00
15626;BMP180;7912;51.376;6.126;2022-11-22T09:19:33;99115.00;;;11.00
15626;BMP180;7912;51.376;6.126;2022-11-22T09:22:00;99111.00;;;11.10
15626;BMP180;7912;51.376;6.126;2022-11-22T09:24:27;99117.00;;;11.20
15626;BMP180;7912;51.376;6.126;2022-11-22T09:26:55;99122.00;;;11.20
15626;BMP180;7912;51.376;6.126;2022-11-22T09:29:23;99121.00;;;11.30
15626;BMP180;7912;51.376;6.126;2022-11-22T09:31:52;99109.00;;;11.30
15626;BMP180;7912;51.376;6.126;2022-11-22T09:34:21;99111.00;;;11.40
15626;BMP180;7912;51.376;6.126;2022-11-22T09:36:52;99115.00;;;11.50
15626;BMP180;7912;51.376;6.126;2022-11-22T09:39:19;99118.00;;;11.50
15626;BMP180;7912;51.376;6.126;2022-11-22T09:51:46;99116.00;;;11.80
15626;BMP180;7912;51.376;6.126;2022-11-22T09:54:27;99099.00;;;11.90
15626;BMP180;7912;51.376;6.126;2022-11-22T09:57:08;99106.00;;;12.10
15626;BMP180;7912;51.376;6.126;2022-11-22T09:59:45;99096.00;;;12.20
15626;BMP180;7912;51.376;6.126;2022-11-22T10:02:33;99098.00;;;12.30
15626;BMP180;7912;51.376;6.126;2022-11-22T10:05:29;99099.00;;;12.40
15626;BMP180;7912;51.376;6.126;2022-11-22T10:20:06;99086.00;;;12.60
15626;BMP180;7912;51.376;6.126;2022-11-22T10:22:38;99084.00;;;12.70
15626;BMP180;7912;51.376;6.126;2022-11-22T10:28:08;99079.00;;;12.70
15626;BMP180;7912;51.376;6.126;2022-11-22T10:30:47;99084.00;;;12.70
15626;BMP180;7912;51.376;6.126;2022-11-22T10:33:31;99075.00;;;12.80
15626;BMP180;7912;51.376;6.126;2022-11-22T10:36:40;99070.00;;;12.80
15626;BMP180;7912;51.376;6.126;2022-11-22T10:39:49;99068.00;;;12.90
15626;BMP180;7912;51.376;6.126;2022-11-22T10:56:05;99050.00;;;13.10
15626;BMP180;7912;51.376;6.126;2022-11-22T10:59:17;99060.00;;;13.30
15626;BMP180;7912;51.376;6.126;2022-11-22T11:04:51;99041.00;;;13.50
15626;BMP180;7912;51.376;6.126;2022-11-22T11:07:23;99049.00;;;13.50
15626;BMP180;7912;51.376;6.126;2022-11-22T11:09:59;99038.00;;;13.60
15626;BMP180;7912;51.376;6.126;2022-11-22T11:12:59;99025.00;;;13.70
15626;BMP180;7912;51.376;6.126;2022-11-22T11:15:36;99032.00;;;13.70
15626;BMP180;7912;51.376;6.126;2022-11-22T11:18:14;99021.00;;;13.70
15626;BMP180;7912;51.376;6.126;2022-11-22T11:20:44;99029.00;;;13.70
15626;BMP180;7912;51.376;6.126;2022-11-22T11:23:26;99021.00;;;13.60
15626;BMP180;7912;51.376;6.126;2022-11-22T11:26:15;99029.00;;;13.60
15626;BMP180;7912;51.376;6.126;2022-11-22T11:28:45;99032.00;;;13.50
15626;BMP180;7912;51.376;6.126;2022-11-22T11:31:14;99032.00;;;13.50
15626;BMP180;7912;51.376;6.126;2022-11-22T11:33:46;99041.00;;;13.50
15626;BMP180;7912;51.376;6.126;2022-11-22T11:36:26;99025.00;;;13.50
15626;BMP180;7912;51.376;6.126;2022-11-22T11:38:57;99033.00;;;13.50
15626;BMP180;7912;51.376;6.126;2022-11-22T11:41:30;99022.00;;;13.50
15626;BMP180;7912;51.376;6.126;2022-11-22T11:44:04;99017.00;;;13.50
15626;BMP180;7912;51.376;6.126;2022-11-22T11:46:45;99023.00;;;13.50
15626;BMP180;7912;51.376;6.126;2022-11-22T11:49:15;99031.00;;;13.50
15626;BMP180;7912;51.376;6.126;2022-11-22T11:51:45;99022.00;;;13.50
15626;BMP180;7912;51.376;6.126;2022-11-22T11:54:21;99018.00;;;13.50
15626;BMP180;7912;51.376;6.126;2022-11-22T11:57:00;99037.00;;;13.50
15626;BMP180;7912;51.376;6.126;2022-11-22T11:59:44;99036.00;;;13.50
15626;BMP180;7912;51.376;6.126;2022-11-22T12:02:22;99026.00;;;13.50
15626;BMP180;7912;51.376;6.126;2022-11-22T12:05:04;99042.00;;;13.50
15626;BMP180;7912;51.376;6.126;2022-11-22T12:15:50;99037.00;;;13.60
15626;BMP180;7912;51.376;6.126;2022-11-22T12:19:26;99032.00;;;13.50
15626;BMP180;7912;51.376;6.126;2022-11-22T12:25:41;99033.00;;;13.40
15626;BMP180;7912;51.376;6.126;2022-11-22T12:28:19;99020.00;;;13.40
15626;BMP180;7912;51.376;6.126;2022-11-22T12:31:35;99025.00;;;13.40
15626;BMP180;7912;51.376;6.126;2022-11-22T12:34:17;99032.00;;;13.40
15626;BMP180;7912;51.376;6.126;2022-11-22T12:37:04;99020.00;;;13.40
15626;BMP180;7912;51.376;6.126;2022-11-22T12:39:36;99014.00;;;13.40
15626;BMP180;7912;51.376;6.126;2022-11-22T12:42:16;99016.00;;;13.40
15626;BMP180;7912;51.376;6.126;2022-11-22T12:45:06;99027.00;;;13.40
15626;BMP180;7912;51.376;6.126;2022-11-22T12:47:44;99018.00;;;13.40
15626;BMP180;7912;51.376;6.126;2022-11-22T12:50:45;99028.00;;;13.40
15626;BMP180;7912;51.376;6.126;2022-11-22T12:53:35;99028.00;;;13.30
15626;BMP180;7912;51.376;6.126;2022-11-22T12:56:16;99033.00;;;13.30
15626;BMP180;7912;51.376;6.126;2022-11-22T12:59:41;99029.00;;;13.30
15626;BMP180;7912;51.376;6.126;2022-11-22T13:02:59;99032.00;;;13.30
15626;BMP180;7912;51.376;6.126;2022-11-22T13:05:38;99021.00;;;13.40
15626;BMP180;7912;51.376;6.126;2022-11-22T13:11:39;99029.00;;;13.40
15626;BMP180;7912;51.376;6.126;2022-11-22T13:14:26;99029.00;;;13.40
15626;BMP180;7912;51.376;6.126;2022-11-22T13:16:58;99022.00;;;13.40
15626;BMP180;7912;51.376;6.126;2022-11-22T13:19:43;99035.00;;;13.50
15626;BMP180;7912;51.376;6.126;2022-11-22T13:28:43;99021.00;;;13.50
15626;BMP180;7912;51.376;6.126;2022-11-22T13:31:17;99014.00;;;13.50
